createdAt,value
2023-05-12T00:01:08.505Z,10.27
2023-05-12T00:03:35.284Z,11.48
2023-05-12T00:06:01.982Z,10.40
2023-05-12T00:08:29.883Z,9.65
2023-05-12T00:10:56.663Z,10.45
2023-05-12T00:13:23.437Z,10.10
2023-05-12T00:15:50.461Z,12.50
2023-05-12T00:18:17.218Z,9.90
2023-05-12T00:20:43.753Z,10.38
2023-05-12T00:23:10.260Z,9.77
2023-05-12T00:25:38.174Z,9.20
2023-05-12T00:28:05.197Z,9.70
2023-05-12T00:30:31.744Z,11.10
2023-05-12T00:32:58.256Z,9.40
2023-05-12T00:35:24.953Z,8.35
2023-05-12T00:37:51.481Z,9.73
2023-05-12T00:40:18.107Z,11.93
2023-05-12T00:42:46.112Z,9.85
2023-05-12T00:45:12.616Z,12.07
2023-05-12T00:47:39.797Z,11.35
2023-05-12T00:50:07.726Z,10.88
2023-05-12T00:52:34.990Z,10.75
2023-05-12T00:55:02.619Z,13.57
2023-05-12T00:57:29.087Z,8.90
2023-05-12T00:59:56.948Z,10.30
2023-05-12T01:02:23.787Z,11.05
2023-05-12T01:04:50.339Z,10.00
2023-05-12T01:07:21.180Z,11.35
2023-05-12T01:09:47.828Z,9.32
2023-05-12T01:12:14.317Z,9.95
2023-05-12T01:14:41.189Z,7.82
2023-05-12T01:17:12.758Z,9.15
2023-05-12T01:19:43.659Z,7.93
2023-05-12T01:22:11.325Z,8.07
2023-05-12T01:24:45.912Z,9.88
2023-05-12T01:27:15.490Z,7.65
2023-05-12T01:29:43.803Z,9.50
2023-05-12T01:32:10.561Z,8.73
2023-05-12T01:34:37.054Z,8.40
2023-05-12T01:37:03.822Z,10.95
2023-05-12T01:39:30.368Z,8.55
2023-05-12T01:41:56.874Z,7.25
2023-05-12T01:44:24.766Z,9.50
2023-05-12T01:46:51.475Z,9.40
2023-05-12T01:49:18.122Z,9.07
2023-05-12T01:51:44.606Z,7.22
2023-05-12T01:54:11.125Z,11.98
2023-05-12T01:56:37.603Z,7.60
2023-05-12T01:59:04.164Z,9.40
2023-05-12T02:01:32.104Z,9.10
2023-05-12T02:03:58.920Z,9.10
2023-05-12T02:06:25.871Z,6.10
2023-05-12T02:08:52.385Z,7.63
2023-05-12T02:11:18.869Z,7.15
2023-05-12T02:13:45.427Z,7.18
2023-05-12T02:16:12.419Z,5.60
2023-05-12T02:18:40.303Z,7.45
2023-05-12T02:21:06.866Z,6.50
2023-05-12T02:23:33.354Z,6.97
2023-05-12T02:25:59.894Z,6.95
2023-05-12T02:28:26.440Z,7.72
2023-05-12T02:30:52.942Z,6.35
2023-05-12T02:33:20.601Z,7.57
2023-05-12T02:35:48.840Z,6.82
2023-05-12T02:38:15.430Z,7.65
2023-05-12T02:40:42.352Z,7.40
2023-05-12T02:43:08.862Z,6.30
2023-05-12T02:45:35.605Z,6.85
2023-05-12T02:48:02.298Z,6.45
2023-05-12T02:50:28.857Z,6.32
2023-05-12T02:52:56.704Z,7.15
2023-05-12T02:55:23.225Z,6.85
2023-05-12T02:57:49.774Z,7.65
2023-05-12T03:00:16.592Z,7.28
2023-05-12T03:02:43.217Z,5.28
2023-05-12T03:05:10.033Z,4.25
2023-05-12T03:07:36.589Z,5.35
2023-05-12T03:10:05.291Z,3.20
2023-05-12T03:12:32.019Z,4.25
2023-05-12T03:14:58.624Z,3.33
2023-05-12T03:17:25.293Z,3.55
2023-05-12T03:19:51.776Z,3.17
2023-05-12T03:22:18.355Z,3.47
2023-05-12T03:24:44.876Z,2.05
2023-05-12T03:27:12.751Z,2.60
2023-05-12T03:29:39.283Z,2.88
2023-05-12T03:32:06.496Z,2.33
2023-05-12T03:34:33.022Z,2.65
2023-05-12T03:36:59.488Z,4.90
2023-05-12T03:39:25.981Z,4.95
2023-05-12T03:41:52.487Z,5.13
2023-05-12T03:44:20.334Z,3.72
2023-05-12T03:46:46.997Z,6.40
2023-05-12T03:49:13.621Z,4.50
2023-05-12T03:51:40.121Z,4.10
2023-05-12T03:54:06.611Z,5.43
2023-05-12T03:56:33.153Z,6.13
2023-05-12T03:58:59.728Z,7.97
2023-05-12T04:01:27.688Z,6.88
2023-05-12T04:03:54.259Z,11.13
2023-05-12T04:06:20.793Z,8.20
2023-05-12T04:08:47.322Z,8.00
2023-05-12T04:11:13.803Z,9.07
2023-05-12T04:13:40.284Z,9.05
2023-05-12T04:16:06.868Z,9.93
2023-05-12T04:18:34.782Z,12.80
2023-05-12T04:21:01.244Z,11.55
2023-05-12T04:23:27.818Z,11.88
2023-05-12T04:25:54.460Z,10.73
2023-05-12T04:28:20.965Z,13.93
2023-05-12T04:30:47.498Z,10.45
2023-05-12T04:33:14.010Z,11.52
2023-05-12T04:35:41.841Z,16.30
2023-05-12T04:38:08.303Z,14.07
2023-05-12T04:40:35.160Z,16.73
2023-05-12T04:43:01.825Z,18.90
2023-05-12T04:45:28.308Z,14.90
2023-05-12T04:47:54.888Z,18.50
2023-05-12T04:50:21.390Z,20.65
2023-05-12T04:52:49.332Z,19.50
2023-05-12T04:55:15.869Z,24.88
2023-05-12T04:57:42.418Z,20.95
2023-05-12T05:00:10.187Z,20.92
2023-05-12T05:02:36.780Z,30.15
2023-05-12T05:05:03.679Z,27.02
2023-05-12T05:07:30.217Z,26.02
2023-05-12T05:09:58.084Z,25.95
2023-05-12T05:12:24.649Z,27.63
2023-05-12T05:14:51.301Z,26.23
2023-05-12T05:17:17.858Z,27.27
2023-05-12T05:19:55.079Z,25.33
2023-05-12T05:22:24.724Z,26.58
2023-05-12T05:24:51.301Z,23.75
2023-05-12T05:27:19.155Z,26.90
2023-05-12T05:29:45.691Z,27.63
2023-05-12T05:32:12.270Z,23.83
2023-05-12T05:34:38.841Z,23.10
2023-05-12T05:37:05.664Z,24.80
2023-05-12T05:39:32.267Z,23.33
2023-05-12T05:41:58.751Z,20.48
2023-05-12T05:44:26.596Z,20.25
2023-05-12T05:46:53.199Z,15.30
2023-05-12T05:49:19.706Z,18.63
2023-05-12T05:51:46.229Z,15.18
2023-05-12T05:54:12.754Z,15.90
2023-05-12T05:56:39.243Z,15.68
2023-05-12T05:59:06.070Z,14.75
2023-05-12T06:01:34.031Z,15.00
2023-05-12T06:04:00.802Z,16.02
2023-05-12T06:06:28.969Z,13.00
2023-05-12T06:08:55.517Z,17.27
2023-05-12T06:11:21.988Z,12.18
2023-05-12T06:13:48.461Z,11.82
2023-05-12T06:16:14.984Z,14.05
2023-05-12T06:18:42.920Z,14.02
2023-05-12T06:21:09.489Z,14.60
2023-05-12T06:23:36.096Z,12.35
2023-05-12T06:26:02.691Z,12.18
2023-05-12T06:28:29.227Z,14.25
2023-05-12T06:30:55.758Z,13.13
2023-05-12T06:33:22.230Z,12.98
2023-05-12T06:35:50.095Z,13.45
2023-05-12T06:38:16.659Z,11.77
2023-05-12T06:40:43.179Z,11.98
2023-05-12T06:43:09.682Z,13.60
2023-05-12T06:45:36.196Z,13.07
2023-05-12T06:48:02.914Z,13.57
2023-05-12T06:50:29.426Z,12.35
2023-05-12T06:52:57.295Z,10.95
2023-05-12T06:55:24.057Z,10.50
2023-05-12T06:57:50.607Z,12.98
2023-05-12T07:00:17.714Z,8.38
2023-05-12T07:02:44.256Z,8.30
2023-05-12T07:05:10.941Z,7.13
2023-05-12T07:07:37.447Z,6.05
2023-05-12T07:10:06.696Z,8.25
2023-05-12T07:12:33.406Z,6.75
2023-05-12T07:14:59.933Z,5.13
2023-05-12T07:17:26.428Z,5.10
2023-05-12T07:19:53.003Z,5.53
2023-05-12T07:22:22.283Z,5.18
2023-05-12T07:24:48.955Z,5.47
2023-05-12T07:27:16.819Z,3.83
2023-05-12T07:29:43.356Z,4.53
2023-05-12T07:32:09.910Z,3.63
2023-05-12T07:34:36.466Z,4.80
2023-05-12T07:37:03.129Z,3.25
2023-05-12T07:39:29.796Z,4.20
2023-05-12T07:41:56.272Z,5.07
2023-05-12T07:44:24.613Z,3.88
2023-05-12T07:46:51.179Z,4.97
2023-05-12T07:49:17.824Z,4.65
2023-05-12T07:51:44.290Z,3.75
2023-05-12T07:54:10.799Z,3.33
2023-05-12T07:56:37.328Z,2.85
2023-05-12T07:59:03.940Z,3.75
2023-05-12T08:01:31.805Z,4.05
2023-05-12T08:03:58.441Z,7.82
2023-05-12T08:06:25.106Z,2.92
2023-05-12T08:08:51.629Z,2.90
2023-05-12T08:11:18.097Z,2.75
2023-05-12T08:13:44.601Z,4.82
2023-05-12T08:16:11.071Z,3.50
2023-05-12T08:18:38.927Z,3.72
2023-05-12T08:21:05.505Z,2.78
2023-05-12T08:23:32.063Z,3.60
2023-05-12T08:25:58.586Z,2.90
2023-05-12T08:28:25.151Z,2.85
2023-05-12T08:30:51.730Z,3.47
2023-05-12T08:33:18.343Z,3.08
2023-05-12T08:35:46.295Z,4.68
2023-05-12T08:38:12.832Z,1.95
2023-05-12T08:40:47.069Z,2.58
2023-05-12T08:43:22.325Z,2.33
2023-05-12T08:45:49.649Z,2.03
2023-05-12T08:48:18.272Z,2.40
2023-05-12T08:50:49.917Z,2.50
2023-05-12T08:53:19.155Z,2.50
2023-05-12T08:56:01.173Z,3.45
2023-05-12T08:58:40.782Z,3.33
2023-05-12T09:01:08.447Z,2.22
2023-05-12T09:03:35.112Z,3.20
2023-05-12T09:06:06.224Z,2.90
2023-05-12T09:08:33.695Z,2.05
2023-05-12T09:11:00.982Z,4.80
2023-05-12T09:13:34.276Z,3.88
2023-05-12T09:16:01.946Z,3.63
2023-05-12T09:18:42.753Z,2.95
2023-05-12T09:21:11.028Z,2.90
2023-05-12T09:23:37.505Z,3.72
2023-05-12T09:26:04.398Z,4.50
2023-05-12T09:28:37.745Z,4.93
2023-05-12T09:31:15.025Z,3.15
2023-05-12T09:33:41.608Z,3.25
2023-05-12T09:36:10.014Z,2.10
2023-05-12T09:38:36.479Z,3.60
2023-05-12T09:41:03.120Z,3.40
2023-05-12T09:43:29.717Z,2.33
2023-05-12T09:45:56.230Z,3.55
2023-05-12T09:48:22.734Z,2.53
2023-05-12T09:50:50.838Z,1.83
2023-05-12T09:53:19.571Z,3.25
2023-05-12T09:55:47.027Z,2.08
2023-05-12T09:58:15.758Z,2.47
2023-05-12T10:01:06.160Z,2.00
2023-05-12T10:03:29.933Z,2.35
2023-05-12T10:06:00.027Z,2.60
2023-05-12T10:08:33.993Z,2.13
2023-05-12T10:11:02.345Z,2.88
2023-05-12T10:13:29.419Z,2.53
2023-05-12T10:15:57.489Z,4.45
2023-05-12T10:18:24.253Z,2.78
2023-05-12T10:20:52.486Z,1.70
2023-05-12T10:23:19.938Z,1.50
2023-05-12T10:25:48.044Z,3.88
2023-05-12T10:28:14.597Z,3.40
2023-05-12T10:30:42.674Z,1.52
2023-05-12T10:33:09.814Z,1.63
2023-05-12T10:35:37.540Z,2.17
2023-05-12T10:38:07.049Z,3.15
2023-05-12T10:40:33.602Z,3.65
2023-05-12T10:43:01.633Z,2.38
2023-05-12T10:45:28.719Z,1.50
2023-05-12T10:48:05.313Z,2.17
2023-05-12T10:50:31.837Z,2.30
2023-05-12T10:52:58.474Z,3.85
2023-05-12T10:55:35.719Z,1.98
2023-05-12T10:58:10.388Z,2.13
2023-05-12T11:00:45.582Z,2.08
2023-05-12T11:03:15.762Z,3.45
2023-05-12T11:05:43.717Z,5.53
2023-05-12T11:08:11.521Z,3.00
2023-05-12T11:10:41.477Z,4.00
2023-05-12T11:13:09.484Z,2.78
2023-05-12T11:15:35.948Z,3.55
2023-05-12T11:18:03.053Z,2.40
2023-05-12T11:20:31.026Z,2.17
2023-05-12T11:22:57.767Z,4.53
2023-05-12T11:25:26.674Z,2.72
2023-05-12T11:27:53.282Z,2.20
2023-05-12T11:30:21.374Z,2.55
2023-05-12T11:32:48.182Z,3.17
2023-05-12T11:35:17.595Z,3.30
2023-05-12T11:37:45.566Z,5.88
2023-05-12T11:40:16.972Z,3.67
2023-05-12T11:42:44.431Z,2.25
2023-05-12T11:45:21.006Z,2.20
2023-05-12T11:47:47.675Z,3.90
2023-05-12T11:50:20.619Z,5.78
2023-05-12T11:52:47.238Z,3.03
2023-05-12T11:55:20.411Z,4.80
2023-05-12T12:00:27.965Z,2.85
2023-05-12T12:03:05.539Z,2.03
2023-05-12T12:05:32.091Z,2.45
2023-05-12T12:08:04.984Z,7.47
2023-05-12T12:10:31.499Z,3.83
2023-05-12T12:12:59.869Z,4.63
2023-05-12T12:15:27.934Z,6.85
2023-05-12T12:17:54.495Z,5.20
2023-05-12T12:20:21.054Z,3.83
2023-05-12T12:22:47.589Z,3.80
2023-05-12T12:25:14.081Z,4.88
2023-05-12T12:27:40.646Z,4.40
2023-05-12T12:30:08.265Z,4.68
2023-05-12T12:32:36.119Z,2.75
2023-05-12T12:35:02.716Z,4.32
2023-05-12T12:37:29.474Z,3.95
2023-05-12T12:39:55.971Z,4.05
2023-05-12T12:42:22.484Z,5.55
2023-05-12T12:44:48.987Z,5.80
2023-05-12T12:47:15.668Z,4.47
2023-05-12T12:49:43.563Z,10.57
2023-05-12T12:52:10.164Z,4.22
2023-05-12T12:54:36.646Z,4.63
2023-05-12T12:57:03.470Z,5.63
2023-05-12T12:59:29.998Z,5.25
2023-05-12T13:01:56.496Z,4.93
2023-05-12T13:04:23.213Z,3.95
2023-05-12T13:06:51.079Z,4.18
2023-05-12T13:09:19.711Z,4.95
2023-05-12T13:11:46.658Z,7.03
2023-05-12T13:14:13.212Z,3.90
2023-05-12T13:16:39.767Z,11.68
2023-05-12T13:19:06.362Z,6.70
2023-05-12T13:21:32.860Z,5.57
2023-05-12T13:24:00.772Z,6.95
2023-05-12T13:26:27.274Z,3.38
2023-05-12T13:28:53.725Z,6.63
2023-05-12T13:31:20.387Z,5.93
2023-05-12T13:33:46.989Z,6.47
2023-05-12T13:36:13.515Z,7.03
2023-05-12T13:38:40.096Z,4.75
2023-05-12T13:41:07.910Z,5.07
2023-05-12T13:43:34.678Z,5.60
2023-05-12T13:46:01.192Z,3.05
2023-05-12T13:48:27.767Z,3.85
2023-05-12T13:50:54.472Z,7.20
2023-05-12T13:53:20.963Z,4.15
2023-05-12T13:55:47.466Z,4.15
2023-05-12T13:58:15.311Z,3.90
2023-05-12T14:00:41.899Z,4.63
2023-05-12T14:03:08.551Z,4.20
2023-05-12T14:05:35.275Z,3.97
2023-05-12T14:08:01.853Z,3.22
2023-05-12T14:10:28.389Z,5.90
2023-05-12T14:12:54.938Z,4.03
2023-05-12T14:15:36.140Z,4.18
2023-05-12T14:18:07.015Z,4.03
2023-05-12T14:20:33.955Z,6.38
2023-05-12T14:23:00.448Z,6.00
2023-05-12T14:25:26.944Z,5.70
2023-05-12T14:27:53.497Z,4.35
2023-05-12T14:30:20.312Z,3.28
2023-05-12T14:32:48.219Z,6.97
2023-05-12T14:35:14.733Z,5.25
2023-05-12T14:37:41.283Z,4.00
2023-05-12T14:40:09.124Z,3.85
2023-05-12T14:42:35.694Z,3.72
2023-05-12T14:45:02.238Z,4.50
2023-05-12T14:47:28.780Z,3.85
2023-05-12T14:49:56.642Z,3.40
2023-05-12T14:52:23.368Z,4.13
2023-05-12T14:54:49.847Z,3.65
2023-05-12T14:57:16.345Z,2.85
2023-05-12T14:59:42.838Z,3.25
2023-05-12T15:02:09.346Z,4.47
2023-05-12T15:04:35.834Z,3.55
2023-05-12T15:07:03.699Z,4.72
2023-05-12T15:09:30.251Z,5.03
2023-05-12T15:11:56.768Z,3.83
2023-05-12T15:16:54.698Z,3.55
2023-05-12T15:19:21.212Z,3.67
2023-05-12T15:21:47.752Z,3.10
2023-05-12T15:24:15.596Z,4.30
2023-05-12T15:26:42.079Z,2.92
2023-05-12T15:29:08.575Z,4.35
2023-05-12T15:31:35.192Z,3.28
2023-05-12T15:34:02.029Z,4.20
2023-05-12T15:36:28.592Z,4.68
2023-05-12T15:38:55.062Z,3.58
2023-05-12T15:41:23.061Z,5.10
2023-05-12T15:43:49.601Z,3.45
2023-05-12T15:46:16.115Z,4.05
2023-05-12T15:48:42.654Z,3.60
2023-05-12T15:51:09.181Z,4.40
2023-05-12T15:53:35.690Z,3.15
2023-05-12T15:56:03.335Z,3.45
2023-05-12T15:58:31.737Z,4.43
2023-05-12T16:00:58.626Z,3.33
2023-05-12T16:03:25.367Z,4.07
2023-05-12T16:05:52.245Z,5.20
2023-05-12T16:08:18.865Z,2.00
2023-05-12T16:10:45.355Z,3.47
2023-05-12T16:13:11.928Z,3.05
2023-05-12T16:15:39.851Z,1.70
2023-05-12T16:18:09.154Z,1.38
2023-05-12T16:20:37.570Z,3.42
2023-05-12T16:23:04.114Z,5.25
2023-05-12T16:25:30.630Z,2.08
2023-05-12T16:27:57.884Z,2.08
2023-05-12T16:30:24.884Z,1.98
2023-05-12T16:32:52.861Z,2.47
2023-05-12T16:35:19.717Z,3.53
2023-05-12T16:37:46.494Z,1.65
2023-05-12T16:40:14.231Z,2.30
2023-05-12T16:42:40.845Z,3.45
2023-05-12T16:45:08.626Z,2.50
2023-05-12T16:47:35.195Z,2.13
2023-05-12T16:50:03.260Z,2.03
2023-05-12T16:52:29.709Z,3.28
2023-05-12T16:54:56.585Z,4.30
2023-05-12T16:57:23.259Z,3.97
2023-05-12T16:59:49.863Z,2.80
2023-05-12T17:02:16.439Z,2.50
2023-05-12T17:04:43.449Z,2.60
2023-05-12T17:07:11.451Z,2.17
2023-05-12T17:09:38.021Z,2.20
2023-05-12T17:12:05.298Z,2.60
2023-05-12T17:14:31.930Z,2.58
2023-05-12T17:16:58.396Z,2.55
2023-05-12T17:19:25.060Z,6.60
2023-05-12T17:21:51.561Z,3.72
2023-05-12T17:24:19.468Z,2.88
2023-05-12T17:26:45.985Z,4.07
2023-05-12T17:29:12.570Z,4.82
2023-05-12T17:31:39.186Z,6.05
2023-05-12T17:34:07.320Z,3.80
2023-05-12T17:36:34.145Z,3.55
2023-05-12T17:39:01.015Z,3.40
2023-05-12T17:41:29.416Z,5.00
2023-05-12T17:43:56.142Z,3.88
2023-05-12T17:46:23.058Z,4.25
2023-05-12T17:48:49.923Z,5.03
2023-05-12T17:51:16.452Z,4.57
2023-05-12T17:53:42.976Z,3.30
2023-05-12T17:56:09.466Z,6.65
2023-05-12T17:58:37.332Z,3.92
2023-05-12T18:01:04.009Z,3.85
2023-05-12T18:03:30.709Z,4.25
2023-05-12T18:05:57.258Z,4.95
2023-05-12T18:08:23.789Z,5.05
2023-05-12T18:10:50.410Z,4.22
2023-05-12T18:13:17.020Z,4.22
2023-05-12T18:15:44.899Z,5.45
2023-05-12T18:18:11.450Z,5.50
2023-05-12T18:20:38.060Z,4.43
2023-05-12T18:23:04.612Z,9.13
2023-05-12T18:25:31.119Z,10.95
2023-05-12T18:27:57.609Z,7.22
2023-05-12T18:30:24.072Z,5.97
2023-05-12T18:32:51.964Z,4.60
2023-05-12T18:35:18.522Z,3.78
2023-05-12T18:37:45.098Z,5.22
2023-05-12T18:40:12.046Z,6.00
2023-05-12T18:42:38.591Z,4.90
2023-05-12T18:45:06.495Z,4.45
2023-05-12T18:47:33.011Z,3.22
2023-05-12T18:50:00.977Z,8.80
2023-05-12T18:52:27.553Z,5.15
2023-05-12T18:54:54.096Z,7.53
2023-05-12T18:57:20.610Z,5.50
2023-05-12T18:59:47.156Z,3.35
2023-05-12T19:02:13.724Z,3.20
2023-05-12T19:04:40.439Z,4.90
2023-05-12T19:07:08.405Z,4.65
2023-05-12T19:09:34.982Z,6.13
2023-05-12T19:12:01.538Z,5.07
2023-05-12T19:14:28.014Z,6.00
2023-05-12T19:16:54.476Z,6.78
2023-05-12T19:19:20.969Z,5.05
2023-05-12T19:21:48.594Z,4.30
2023-05-12T19:24:16.485Z,4.60
2023-05-12T19:26:43.011Z,4.35
2023-05-12T19:29:09.497Z,6.10
2023-05-12T19:31:36.103Z,6.40
2023-05-12T19:34:03.178Z,9.55
2023-05-12T19:36:30.301Z,5.53
2023-05-12T19:38:56.797Z,6.00
2023-05-12T19:41:24.695Z,5.00
2023-05-12T19:43:51.193Z,5.22
2023-05-12T19:46:17.934Z,6.50
2023-05-12T19:48:44.673Z,6.85
2023-05-12T19:51:11.177Z,6.10
2023-05-12T19:53:37.671Z,4.80
2023-05-12T19:56:04.431Z,5.70
2023-05-12T19:58:32.322Z,5.47
2023-05-12T20:00:58.997Z,5.32
2023-05-12T20:03:26.876Z,4.15
2023-05-12T20:05:53.612Z,6.18
2023-05-12T20:08:20.084Z,6.68
2023-05-12T20:10:46.577Z,4.82
2023-05-12T20:13:13.105Z,4.78
2023-05-12T20:15:40.951Z,4.15
2023-05-12T20:18:07.502Z,4.93
2023-05-12T20:20:34.010Z,6.32
2023-05-12T20:23:00.491Z,5.15
2023-05-12T20:25:27.035Z,6.22
2023-05-12T20:27:53.588Z,6.75
2023-05-12T20:30:20.083Z,9.88
2023-05-12T20:32:47.995Z,7.60
2023-05-12T20:35:14.607Z,7.50
2023-05-12T20:37:41.137Z,8.05
2023-05-12T20:40:09.085Z,4.85
2023-05-12T20:42:35.609Z,8.10
2023-05-12T20:45:02.268Z,6.93
2023-05-12T20:47:28.876Z,5.25
2023-05-12T20:49:57.296Z,6.05
2023-05-12T20:52:23.885Z,6.85
2023-05-12T20:54:56.398Z,5.40
2023-05-12T20:57:22.981Z,6.55
2023-05-12T20:59:49.466Z,7.00
2023-05-12T21:04:42.536Z,7.70
2023-05-12T21:07:10.435Z,11.13
2023-05-12T21:09:36.934Z,9.57
2023-05-12T21:12:03.962Z,13.50
2023-05-12T21:14:30.439Z,10.18
2023-05-12T21:16:56.952Z,11.45
2023-05-12T21:19:23.443Z,8.68
2023-05-12T21:21:49.924Z,8.02
2023-05-12T21:24:17.754Z,12.05
2023-05-12T21:26:44.256Z,8.75
2023-05-12T21:29:10.786Z,10.07
2023-05-12T21:31:37.327Z,9.40
2023-05-12T21:34:03.907Z,9.48
2023-05-12T21:36:30.441Z,10.00
2023-05-12T21:38:56.919Z,8.82
2023-05-12T21:41:24.825Z,9.18
2023-05-12T21:43:51.307Z,9.60
2023-05-12T21:46:17.888Z,9.63
2023-05-12T21:48:44.472Z,8.38
2023-05-12T21:51:11.816Z,9.57
2023-05-12T21:53:38.344Z,7.55
2023-05-12T21:56:05.701Z,8.55
2023-05-12T21:58:33.527Z,9.10
2023-05-12T22:01:00.079Z,10.20
2023-05-12T22:03:26.718Z,8.18
2023-05-12T22:05:53.283Z,11.55
2023-05-12T22:08:19.802Z,8.77
2023-05-12T22:10:46.294Z,10.27
2023-05-12T22:13:12.823Z,8.80
2023-05-12T22:15:40.769Z,9.35
2023-05-12T22:18:07.365Z,10.27
2023-05-12T22:20:33.876Z,10.73
2023-05-12T22:23:00.460Z,10.45
2023-05-12T22:25:26.988Z,8.77
2023-05-12T22:27:53.565Z,8.60
2023-05-12T22:30:20.268Z,8.02
2023-05-12T22:32:48.347Z,7.38
2023-05-12T22:35:15.173Z,9.02
2023-05-12T22:37:41.735Z,8.68
2023-05-12T22:40:09.367Z,8.85
2023-05-12T22:42:36.023Z,9.27
2023-05-12T22:45:02.557Z,8.63
2023-05-12T22:47:29.152Z,8.55
2023-05-12T22:49:57.060Z,9.85
2023-05-12T22:52:23.655Z,12.00
2023-05-12T22:54:51.703Z,8.63
2023-05-12T22:57:18.242Z,8.27
2023-05-12T22:59:44.746Z,8.85
2023-05-12T23:02:11.298Z,10.93
2023-05-12T23:04:37.858Z,8.05
2023-05-12T23:07:07.738Z,9.23
2023-05-12T23:09:35.590Z,7.10
2023-05-12T23:12:02.447Z,9.77
2023-05-12T23:14:29.234Z,9.45
2023-05-12T23:16:55.892Z,9.15
2023-05-12T23:19:22.460Z,9.13
2023-05-12T23:21:48.971Z,7.63
2023-05-12T23:24:16.814Z,8.40
2023-05-12T23:26:43.303Z,9.02
2023-05-12T23:29:09.792Z,8.20
2023-05-12T23:31:36.364Z,8.35
2023-05-12T23:34:02.873Z,7.75
2023-05-12T23:36:29.384Z,8.73
2023-05-12T23:38:55.896Z,7.72
2023-05-12T23:41:23.776Z,9.98
2023-05-12T23:43:50.285Z,6.90
2023-05-12T23:46:16.898Z,7.45
2023-05-12T23:48:43.469Z,7.72
2023-05-12T23:51:09.980Z,8.02
2023-05-12T23:53:36.494Z,9.50
2023-05-12T23:56:03.049Z,8.88
2023-05-12T23:58:30.952Z,7.65
